Terminal Aerodrome Forecast
Issued by NWS

Home | Current Version | Previous Version | Text Only | Print | Product List | Glossary Off
Versions: 1 2 3 4 5 6 7 8 9 10 11 12 13 14 15

888
FTUS43 KMPX 222333
TAFRWF
TAF
KRWF 222333Z 2300/2324 34008KT P6SM -RA BKN060
     FM230200 31007KT P6SM BKN070
     FM231100 35009KT 6SM -RA BR OVC015
     FM232000 35009KT P6SM VCSH SCT015 OVC025=

USA.gov is the U.S. government's official web portal to all federal, state and local government web resources and services.